createdAt,value
2023-01-15T00:00:05.997Z,1.10
2023-01-15T00:02:34.336Z,1.17
2023-01-15T00:05:03.456Z,1.10
2023-01-15T00:07:32.008Z,1.03
2023-01-15T00:09:59.965Z,1.10
2023-01-15T00:12:27.927Z,1.30
2023-01-15T00:14:58.211Z,1.20
2023-01-15T00:17:26.391Z,1.10
2023-01-15T00:19:54.277Z,1.57
2023-01-15T00:22:22.197Z,1.20
2023-01-15T00:25:07.449Z,1.23
2023-01-15T00:27:41.675Z,1.20
2023-01-15T00:30:15.356Z,1.23
2023-01-15T00:32:44.420Z,1.17
2023-01-15T00:35:14.674Z,1.20
2023-01-15T00:37:43.599Z,1.10
2023-01-15T00:40:13.148Z,1.10
2023-01-15T00:42:41.250Z,1.27
2023-01-15T00:45:12.673Z,1.10
2023-01-15T00:47:42.840Z,1.23
2023-01-15T00:50:13.137Z,1.13
2023-01-15T00:52:41.945Z,1.30
2023-01-15T00:55:10.513Z,1.03
2023-01-15T00:57:38.561Z,1.13
2023-01-15T01:00:07.845Z,1.20
2023-01-15T01:02:37.095Z,0.97
2023-01-15T01:05:05.611Z,1.10
2023-01-15T01:07:33.618Z,1.17
2023-01-15T01:10:01.451Z,0.90
2023-01-15T01:12:29.563Z,1.03
2023-01-15T01:14:57.426Z,0.93
2023-01-15T01:17:25.307Z,0.90
2023-01-15T01:19:54.483Z,1.23
2023-01-15T01:22:22.330Z,1.10
2023-01-15T01:24:50.338Z,1.17
2023-01-15T01:27:19.342Z,1.10
2023-01-15T01:29:47.227Z,1.20
2023-01-15T01:32:15.203Z,1.00
2023-01-15T01:34:43.386Z,1.40
2023-01-15T01:37:12.641Z,1.30
2023-01-15T01:39:41.111Z,1.30
2023-01-15T01:42:13.837Z,1.23
2023-01-15T01:45:19.811Z,1.30
2023-01-15T01:47:48.342Z,1.00
2023-01-15T01:50:16.248Z,1.20
2023-01-15T01:52:50.080Z,1.33
2023-01-15T01:55:21.349Z,1.40
2023-01-15T01:57:50.181Z,0.90
2023-01-15T02:00:19.910Z,1.40
2023-01-15T02:02:49.868Z,1.10
2023-01-15T02:05:27.941Z,1.40
2023-01-15T02:07:57.230Z,1.50
2023-01-15T02:10:25.330Z,1.87
2023-01-15T02:13:01.182Z,1.63
2023-01-15T02:15:36.594Z,1.70
2023-01-15T02:18:13.565Z,1.70
2023-01-15T02:20:44.620Z,1.87
2023-01-15T02:23:26.684Z,1.77
2023-01-15T02:26:22.906Z,1.80
2023-01-15T02:28:57.511Z,1.73
2023-01-15T02:31:31.407Z,1.80
2023-01-15T02:34:03.445Z,1.87
2023-01-15T02:36:35.555Z,2.13
2023-01-15T02:39:08.152Z,1.93
2023-01-15T02:41:40.327Z,2.00
2023-01-15T02:44:12.711Z,1.97
2023-01-15T02:46:42.203Z,2.07
2023-01-15T02:49:16.192Z,1.63
2023-01-15T02:51:50.331Z,1.73
2023-01-15T02:54:24.780Z,1.43
2023-01-15T02:56:54.975Z,1.90
2023-01-15T02:59:31.205Z,1.50
2023-01-15T03:02:02.704Z,1.37
2023-01-15T03:04:37.918Z,1.50
2023-01-15T03:07:10.759Z,1.60
2023-01-15T03:09:39.774Z,1.50
2023-01-15T03:12:11.204Z,1.30
2023-01-15T03:14:50.953Z,1.47
2023-01-15T03:17:22.078Z,1.53
2023-01-15T03:19:55.407Z,1.60
2023-01-15T03:22:29.350Z,1.40
2023-01-15T03:25:03.949Z,1.20
2023-01-15T03:27:35.878Z,1.50
2023-01-15T03:30:08.193Z,1.40
2023-01-15T03:32:37.015Z,1.50
2023-01-15T03:35:10.582Z,1.60
2023-01-15T03:37:44.694Z,1.53
2023-01-15T03:40:13.630Z,1.80
2023-01-15T03:43:12.612Z,1.50
2023-01-15T03:45:44.681Z,1.70
2023-01-15T03:48:21.299Z,2.13
2023-01-15T03:50:52.375Z,1.70
2023-01-15T03:53:23.921Z,1.53
2023-01-15T03:56:07.067Z,1.40
2023-01-15T03:58:44.521Z,1.30
2023-01-15T04:01:20.081Z,1.63
2023-01-15T04:03:50.228Z,1.70
2023-01-15T04:06:20.579Z,1.90
2023-01-15T04:08:49.248Z,1.60
2023-01-15T04:11:24.415Z,1.73
2023-01-15T04:13:55.358Z,1.70
2023-01-15T04:16:34.400Z,1.50
2023-01-15T04:19:02.441Z,1.63
2023-01-15T04:21:30.908Z,1.60
2023-01-15T04:23:59.059Z,1.47
2023-01-15T04:26:27.027Z,1.50
2023-01-15T04:28:55.054Z,1.50
2023-01-15T04:31:22.949Z,1.60
2023-01-15T04:33:52.225Z,1.50
2023-01-15T04:36:20.156Z,1.67
2023-01-15T04:38:47.972Z,1.57
2023-01-15T04:41:33.457Z,1.50
2023-01-15T04:44:07.295Z,1.53
2023-01-15T04:46:36.100Z,1.47
2023-01-15T04:49:06.246Z,2.10
2023-01-15T04:51:34.127Z,1.80
2023-01-15T04:54:03.910Z,1.80
2023-01-15T04:56:32.128Z,1.60
2023-01-15T04:59:01.807Z,1.90
2023-01-15T05:01:30.235Z,2.10
2023-01-15T05:03:58.744Z,1.50
2023-01-15T05:06:28.126Z,1.83
2023-01-15T05:08:56.010Z,1.40
2023-01-15T05:11:24.162Z,1.40
2023-01-15T05:13:52.071Z,1.73
2023-01-15T05:16:21.962Z,1.93
2023-01-15T05:18:49.812Z,1.40
2023-01-15T05:21:21.532Z,1.60
2023-01-15T05:23:51.961Z,1.80
2023-01-15T05:26:20.975Z,1.70
2023-01-15T05:28:49.136Z,1.80
2023-01-15T05:31:18.903Z,1.80
2023-01-15T05:33:48.480Z,2.27
2023-01-15T05:36:19.760Z,1.83
2023-01-15T05:38:48.031Z,1.80
2023-01-15T05:41:37.143Z,2.13
2023-01-15T05:44:07.562Z,2.03
2023-01-15T05:46:36.562Z,1.80
2023-01-15T05:49:06.184Z,1.93
2023-01-15T05:51:35.001Z,1.90
2023-01-15T05:54:03.267Z,2.00
2023-01-15T05:56:32.818Z,1.97
2023-01-15T05:59:00.667Z,1.80
2023-01-15T06:01:28.501Z,1.60
2023-01-15T06:03:59.578Z,2.20
2023-01-15T06:06:27.643Z,1.57
2023-01-15T06:08:55.484Z,1.57
2023-01-15T06:11:23.737Z,2.20
2023-01-15T06:13:52.960Z,2.00
2023-01-15T06:16:21.015Z,2.03
2023-01-15T06:18:48.979Z,1.60
2023-01-15T06:21:17.466Z,1.80
2023-01-15T06:23:45.439Z,1.80
2023-01-15T06:26:14.767Z,1.90
2023-01-15T06:28:43.051Z,2.50
2023-01-15T06:31:14.820Z,2.00
2023-01-15T06:33:43.046Z,2.20
2023-01-15T06:36:12.810Z,1.80
2023-01-15T06:38:40.808Z,2.00
2023-01-15T06:41:40.553Z,1.97
2023-01-15T06:44:31.020Z,2.20
2023-01-15T06:47:21.927Z,2.30
2023-01-15T06:49:52.060Z,2.07
2023-01-15T06:52:19.957Z,1.67
2023-01-15T06:54:47.876Z,2.00
2023-01-15T06:57:16.534Z,2.00
2023-01-15T06:59:44.363Z,2.30
2023-01-15T07:02:13.638Z,1.93
2023-01-15T07:04:41.487Z,1.80
2023-01-15T07:07:09.293Z,2.10
2023-01-15T07:09:38.025Z,2.07
2023-01-15T07:12:06.050Z,1.90
2023-01-15T07:14:33.932Z,2.07
2023-01-15T07:17:01.748Z,1.80
2023-01-15T07:19:30.991Z,1.90
2023-01-15T07:21:58.859Z,1.70
2023-01-15T07:24:26.776Z,1.97
2023-01-15T07:26:54.658Z,2.00
2023-01-15T07:29:23.216Z,2.00
2023-01-15T07:31:51.145Z,2.00
2023-01-15T07:34:19.169Z,2.10
2023-01-15T07:36:48.464Z,2.03
2023-01-15T07:39:16.703Z,2.23
2023-01-15T07:42:01.894Z,2.10
2023-01-15T07:44:52.935Z,2.10
2023-01-15T07:47:40.827Z,1.80
2023-01-15T07:50:10.595Z,2.00
2023-01-15T07:52:39.741Z,2.10
2023-01-15T07:55:09.980Z,2.03
2023-01-15T07:57:37.984Z,1.93
2023-01-15T08:00:07.502Z,2.10
2023-01-15T08:02:40.538Z,2.23
2023-01-15T08:05:11.368Z,1.93
2023-01-15T08:07:41.802Z,2.00
2023-01-15T08:10:11.740Z,1.70
2023-01-15T08:12:57.853Z,2.17
2023-01-15T08:15:25.947Z,2.30
2023-01-15T08:17:54.287Z,1.80
2023-01-15T08:20:25.395Z,2.70
2023-01-15T08:22:54.676Z,2.37
2023-01-15T08:25:24.998Z,2.20
2023-01-15T08:27:53.715Z,2.70
2023-01-15T08:30:23.604Z,2.23
2023-01-15T08:32:51.636Z,2.37
2023-01-15T08:35:19.492Z,2.27
2023-01-15T08:37:47.435Z,2.10
2023-01-15T08:40:16.641Z,2.20
2023-01-15T08:42:44.481Z,2.90
2023-01-15T08:45:12.827Z,2.17
2023-01-15T08:47:40.733Z,2.13
2023-01-15T08:50:09.814Z,2.20
2023-01-15T08:52:38.811Z,2.43
2023-01-15T08:55:08.282Z,2.50
2023-01-15T08:57:38.480Z,2.53
2023-01-15T09:00:07.869Z,2.27
2023-01-15T09:02:35.750Z,2.00
2023-01-15T09:05:03.675Z,2.53
2023-01-15T09:07:31.749Z,2.17
2023-01-15T09:09:59.559Z,2.63
2023-01-15T09:12:27.564Z,2.30
2023-01-15T09:15:01.795Z,2.37
2023-01-15T09:17:32.132Z,2.20
2023-01-15T09:20:00.649Z,1.93
2023-01-15T09:22:30.656Z,2.87
2023-01-15T09:24:58.596Z,2.00
2023-01-15T09:27:26.498Z,2.27
2023-01-15T09:29:56.179Z,2.30
2023-01-15T09:32:24.173Z,2.20
2023-01-15T09:34:52.271Z,2.00
2023-01-15T09:37:20.288Z,2.20
2023-01-15T09:39:48.271Z,2.13
2023-01-15T09:42:33.411Z,1.90
2023-01-15T09:45:22.428Z,2.00
2023-01-15T09:48:12.963Z,1.87
2023-01-15T09:50:49.474Z,1.90
2023-01-15T09:53:55.257Z,2.20
2023-01-15T09:56:25.447Z,2.20
2023-01-15T09:58:54.589Z,2.03
2023-01-15T10:01:29.935Z,2.00
2023-01-15T10:04:03.760Z,1.93
2023-01-15T10:06:36.650Z,1.80
2023-01-15T10:09:11.820Z,1.50
2023-01-15T10:12:01.785Z,1.90
2023-01-15T10:14:46.509Z,1.63
2023-01-15T10:17:27.193Z,1.50
2023-01-15T10:19:56.938Z,1.47
2023-01-15T10:22:59.646Z,1.50
2023-01-15T10:25:34.134Z,1.87
2023-01-15T10:28:13.363Z,1.60
2023-01-15T10:30:44.933Z,1.40
2023-01-15T10:33:34.453Z,1.73
2023-01-15T10:36:07.228Z,1.90
2023-01-15T10:38:44.833Z,1.70
2023-01-15T10:41:37.623Z,1.80
2023-01-15T10:44:14.153Z,1.70
2023-01-15T10:46:45.080Z,2.00
2023-01-15T10:49:16.890Z,1.93
2023-01-15T10:51:47.318Z,1.80
2023-01-15T10:54:26.738Z,2.33
2023-01-15T10:57:02.040Z,2.00
2023-01-15T10:59:39.165Z,1.80
2023-01-15T11:02:27.087Z,1.53
2023-01-15T11:04:56.675Z,1.70
2023-01-15T11:07:33.088Z,1.40
2023-01-15T11:10:04.732Z,1.87
2023-01-15T11:13:05.016Z,1.50
2023-01-15T11:15:50.553Z,1.60
2023-01-15T11:18:43.265Z,1.60
2023-01-15T11:21:16.314Z,1.63
2023-01-15T11:23:44.748Z,1.60
2023-01-15T11:26:20.786Z,1.70
2023-01-15T11:28:48.815Z,1.80
2023-01-15T11:31:18.128Z,1.40
2023-01-15T11:33:58.067Z,1.70
2023-01-15T11:36:28.847Z,1.50
2023-01-15T11:38:57.117Z,1.40
2023-01-15T11:41:50.344Z,1.50
2023-01-15T11:44:37.705Z,1.87
2023-01-15T11:47:29.709Z,1.40
2023-01-15T11:50:15.771Z,1.40
2023-01-15T11:52:49.691Z,1.63
2023-01-15T11:55:22.154Z,1.83
2023-01-15T11:57:51.422Z,1.40
2023-01-15T12:00:23.137Z,1.70
2023-01-15T12:02:53.734Z,1.80
2023-01-15T12:05:23.828Z,1.40
2023-01-15T12:07:55.923Z,1.93
2023-01-15T12:10:54.037Z,2.47
2023-01-15T12:13:32.584Z,1.70
2023-01-15T12:16:09.623Z,1.70
2023-01-15T12:18:56.965Z,1.20
2023-01-15T12:21:48.463Z,1.50
2023-01-15T12:24:42.406Z,1.00
2023-01-15T12:27:31.702Z,0.90
2023-01-15T12:30:03.537Z,1.10
2023-01-15T12:32:38.108Z,1.00
2023-01-15T12:35:15.094Z,1.00
2023-01-15T12:37:47.517Z,0.90
2023-01-15T12:40:23.625Z,0.90
2023-01-15T12:43:20.346Z,0.80
2023-01-15T12:45:53.112Z,0.97
2023-01-15T12:48:28.163Z,1.43
2023-01-15T12:51:00.042Z,1.20
2023-01-15T12:53:34.376Z,1.20
2023-01-15T12:56:14.984Z,1.20
2023-01-15T12:58:48.296Z,1.47
2023-01-15T13:01:24.815Z,1.70
2023-01-15T13:04:08.584Z,1.57
2023-01-15T13:06:42.533Z,1.60
2023-01-15T13:09:16.783Z,1.40
2023-01-15T13:11:46.038Z,1.60
2023-01-15T13:14:17.334Z,1.70
2023-01-15T13:16:55.041Z,2.07
2023-01-15T13:19:36.067Z,1.90
2023-01-15T13:22:11.585Z,1.83
2023-01-15T13:25:07.859Z,1.80
2023-01-15T13:27:54.530Z,1.93
2023-01-15T13:30:39.684Z,1.80
2023-01-15T13:33:19.299Z,2.10
2023-01-15T13:35:50.839Z,1.90
2023-01-15T13:38:23.403Z,2.17
2023-01-15T13:40:54.979Z,1.87
2023-01-15T13:43:33.524Z,2.20
2023-01-15T13:46:04.323Z,1.90
2023-01-15T13:48:35.803Z,2.70
2023-01-15T13:51:05.845Z,2.20
2023-01-15T13:53:35.787Z,2.50
2023-01-15T13:56:06.605Z,2.30
2023-01-15T13:58:39.046Z,2.47
2023-01-15T14:01:22.756Z,2.30
2023-01-15T14:04:03.824Z,2.00
2023-01-15T14:06:43.569Z,1.80
2023-01-15T14:09:13.526Z,1.67
2023-01-15T14:11:59.342Z,1.90
2023-01-15T14:14:43.627Z,2.10
2023-01-15T14:17:41.050Z,1.60
2023-01-15T14:20:37.852Z,1.90
2023-01-15T14:23:22.287Z,2.13
2023-01-15T14:26:01.517Z,1.93
2023-01-15T14:28:42.066Z,2.27
2023-01-15T14:31:22.836Z,2.17
2023-01-15T14:34:05.048Z,1.90
2023-01-15T14:36:40.136Z,1.97
2023-01-15T14:39:25.251Z,1.87
2023-01-15T14:42:16.085Z,1.80
2023-01-15T14:44:46.211Z,2.60
2023-01-15T14:47:26.626Z,2.20
2023-01-15T14:50:03.444Z,2.33
2023-01-15T14:52:31.907Z,2.23
2023-01-15T14:55:00.649Z,2.10
2023-01-15T14:57:28.968Z,2.40
2023-01-15T15:00:03.883Z,2.60
2023-01-15T15:02:38.666Z,1.70
2023-01-15T15:05:13.716Z,1.87
2023-01-15T15:07:45.438Z,2.53
2023-01-15T15:10:21.252Z,2.30
2023-01-15T15:12:55.254Z,1.80
2023-01-15T15:15:46.823Z,1.97
2023-01-15T15:18:28.926Z,2.00
2023-01-15T15:21:06.443Z,2.10
2023-01-15T15:23:40.629Z,2.17
2023-01-15T15:26:20.788Z,2.37
2023-01-15T15:28:57.887Z,2.17
2023-01-15T15:31:26.459Z,1.90
2023-01-15T15:33:57.393Z,2.50
2023-01-15T15:36:26.927Z,2.27
2023-01-15T15:38:56.471Z,2.80
2023-01-15T15:41:42.011Z,1.80
2023-01-15T15:44:32.809Z,2.00
2023-01-15T15:47:26.458Z,2.23
2023-01-15T15:49:56.035Z,2.37
2023-01-15T15:52:25.820Z,2.03
2023-01-15T15:55:00.425Z,2.23
2023-01-15T15:57:30.267Z,1.83
2023-01-15T15:59:58.202Z,1.80
2023-01-15T16:02:34.278Z,1.77
2023-01-15T16:05:05.479Z,2.17
2023-01-15T16:07:36.328Z,2.10
2023-01-15T16:10:13.556Z,2.20
2023-01-15T16:12:45.415Z,2.00
2023-01-15T16:15:17.411Z,2.30
2023-01-15T16:17:45.962Z,2.20
2023-01-15T16:20:17.795Z,2.87
2023-01-15T16:22:46.822Z,2.67
2023-01-15T16:25:25.839Z,2.83
2023-01-15T16:27:54.115Z,3.10
2023-01-15T16:30:22.593Z,3.13
2023-01-15T16:32:52.047Z,3.20
2023-01-15T16:35:24.414Z,3.30
2023-01-15T16:37:56.141Z,3.60
2023-01-15T16:40:28.812Z,3.47
2023-01-15T16:43:07.136Z,3.17
2023-01-15T16:45:37.692Z,3.17
2023-01-15T16:48:27.200Z,2.80
2023-01-15T16:50:58.180Z,3.60
2023-01-15T16:53:38.860Z,3.10
2023-01-15T16:56:24.553Z,3.00
2023-01-15T16:58:52.613Z,2.97
2023-01-15T17:01:35.429Z,3.00
2023-01-15T17:04:04.598Z,3.20
2023-01-15T17:06:33.885Z,3.00
2023-01-15T17:09:01.822Z,2.60
2023-01-15T17:11:33.312Z,2.40
2023-01-15T17:14:18.977Z,2.50
2023-01-15T17:16:46.905Z,2.50
2023-01-15T17:19:17.744Z,2.80
2023-01-15T17:21:47.592Z,2.07
2023-01-15T17:24:15.584Z,1.80
2023-01-15T17:26:43.556Z,1.97
2023-01-15T17:29:13.259Z,2.10
2023-01-15T17:31:43.758Z,2.00
2023-01-15T17:34:11.723Z,2.33
2023-01-15T17:36:39.801Z,2.47
2023-01-15T17:39:13.022Z,2.40
2023-01-15T17:41:40.909Z,2.23
2023-01-15T17:44:09.871Z,2.10
2023-01-15T17:46:37.785Z,2.10
2023-01-15T17:49:05.639Z,2.03
2023-01-15T17:51:33.514Z,2.10
2023-01-15T17:54:01.404Z,2.23
2023-01-15T17:56:47.975Z,3.53
2023-01-15T17:59:33.599Z,2.10
2023-01-15T18:02:18.809Z,2.00
2023-01-15T18:05:07.190Z,2.57
2023-01-15T18:07:40.748Z,2.83
2023-01-15T18:10:11.533Z,2.80
2023-01-15T18:12:40.890Z,2.23
2023-01-15T18:15:09.539Z,2.50
2023-01-15T18:17:37.351Z,2.47
2023-01-15T18:20:06.153Z,2.50
2023-01-15T18:22:34.018Z,2.73
2023-01-15T18:25:02.094Z,2.83
2023-01-15T18:27:30.815Z,3.03
2023-01-15T18:30:00.377Z,2.57
2023-01-15T18:32:29.273Z,2.90
2023-01-15T18:34:57.263Z,3.40
2023-01-15T18:37:25.184Z,3.10
2023-01-15T18:39:53.005Z,3.57
2023-01-15T18:42:38.677Z,2.60
2023-01-15T18:45:38.337Z,3.77
2023-01-15T18:48:06.572Z,3.10
2023-01-15T18:50:34.594Z,3.63
2023-01-15T18:53:02.474Z,3.23
2023-01-15T18:55:30.438Z,3.70
2023-01-15T18:57:58.341Z,3.00
2023-01-15T19:00:27.665Z,3.53
2023-01-15T19:02:55.600Z,3.87
2023-01-15T19:05:23.864Z,3.37
2023-01-15T19:07:51.863Z,3.33
2023-01-15T19:10:20.051Z,3.50
2023-01-15T19:12:48.800Z,4.87
2023-01-15T19:35:42.851Z,3.70
2023-01-15T19:38:11.603Z,3.93
2023-01-15T19:40:42.010Z,2.80
2023-01-15T19:43:28.634Z,3.17
2023-01-15T19:46:13.870Z,3.00
2023-01-15T19:48:59.854Z,2.77
2023-01-15T19:52:00.817Z,2.87
2023-01-15T19:54:42.628Z,2.90
2023-01-15T19:57:10.579Z,3.53
2023-01-15T19:59:38.502Z,3.40
2023-01-15T20:02:06.540Z,3.17
2023-01-15T20:04:35.078Z,3.20
2023-01-15T20:07:04.337Z,2.90
2023-01-15T20:09:32.211Z,3.80
2023-01-15T20:12:17.544Z,3.07
2023-01-15T20:14:47.356Z,3.87
2023-01-15T20:17:15.357Z,4.20
2023-01-15T20:19:43.281Z,3.43
2023-01-15T20:22:12.835Z,3.40
2023-01-15T20:24:43.733Z,3.23
2023-01-15T20:27:12.505Z,4.27
2023-01-15T20:29:40.764Z,3.03
2023-01-15T20:32:08.760Z,3.60
2023-01-15T20:34:38.430Z,3.17
2023-01-15T20:37:06.505Z,3.10
2023-01-15T20:39:36.041Z,3.37
2023-01-15T20:42:21.778Z,3.10
2023-01-15T20:44:55.747Z,3.23
2023-01-15T20:47:42.789Z,3.50
2023-01-15T20:50:13.811Z,3.60
2023-01-15T20:52:46.575Z,3.00
2023-01-15T20:55:16.859Z,3.77
2023-01-15T20:57:44.887Z,4.40
2023-01-15T21:00:15.038Z,4.20
2023-01-15T21:02:43.157Z,3.67
2023-01-15T21:05:11.521Z,4.00
2023-01-15T21:07:39.833Z,3.27
2023-01-15T21:10:10.281Z,3.50
2023-01-15T21:12:39.663Z,3.70
2023-01-15T21:15:08.747Z,3.70
2023-01-15T21:17:38.098Z,3.63
2023-01-15T21:20:07.518Z,3.40
2023-01-15T21:22:35.604Z,3.10
2023-01-15T21:25:03.624Z,2.90
2023-01-15T21:27:32.000Z,3.20
2023-01-15T21:30:01.236Z,3.87
2023-01-15T21:32:29.060Z,3.50
2023-01-15T21:34:56.984Z,3.70
2023-01-15T21:37:24.975Z,3.30
2023-01-15T21:39:52.812Z,3.20
2023-01-15T21:42:40.218Z,3.73
2023-01-15T21:45:11.922Z,3.30
2023-01-15T21:47:41.448Z,3.23
2023-01-15T21:50:10.755Z,3.23
2023-01-15T21:52:38.736Z,3.10
2023-01-15T21:55:08.278Z,2.83
2023-01-15T21:57:36.137Z,3.17
2023-01-15T22:00:05.998Z,3.20
2023-01-15T22:02:37.511Z,3.00
2023-01-15T22:05:07.953Z,3.60
2023-01-15T22:07:36.116Z,3.50
2023-01-15T22:10:04.214Z,3.80
2023-01-15T22:12:33.746Z,4.20
2023-01-15T22:15:01.619Z,4.63
2023-01-15T22:17:29.501Z,3.67
2023-01-15T22:19:58.681Z,3.93
2023-01-15T22:22:30.757Z,4.10
2023-01-15T22:24:58.658Z,4.13
2023-01-15T22:27:27.998Z,4.40
2023-01-15T22:29:55.918Z,4.03
2023-01-15T22:32:23.769Z,3.50
2023-01-15T22:34:51.958Z,4.17
2023-01-15T22:37:21.148Z,3.73
2023-01-15T22:39:49.879Z,3.77
2023-01-15T22:42:28.211Z,4.10
2023-01-15T22:44:59.689Z,3.73
2023-01-15T22:47:28.546Z,3.27
2023-01-15T22:49:56.474Z,3.67
2023-01-15T22:52:26.132Z,3.40
2023-01-15T22:54:54.495Z,3.80
2023-01-15T22:57:22.487Z,3.70
2023-01-15T22:59:51.341Z,3.60
2023-01-15T23:02:40.239Z,3.43
2023-01-15T23:05:08.755Z,3.83
2023-01-15T23:07:40.552Z,4.20
2023-01-15T23:10:12.029Z,4.10
2023-01-15T23:12:40.350Z,4.07
2023-01-15T23:15:12.042Z,4.57
2023-01-15T23:17:40.394Z,4.43
2023-01-15T23:20:09.375Z,4.67
2023-01-15T23:22:39.333Z,4.80
2023-01-15T23:25:08.849Z,4.23
2023-01-15T23:27:36.890Z,4.53
2023-01-15T23:30:05.676Z,4.67
2023-01-15T23:32:33.572Z,4.80
2023-01-15T23:35:01.504Z,4.67
2023-01-15T23:37:29.352Z,4.60
2023-01-15T23:39:58.558Z,4.80
2023-01-15T23:42:44.761Z,4.60
2023-01-15T23:45:30.345Z,4.67
2023-01-15T23:47:58.416Z,4.60
2023-01-15T23:50:26.236Z,4.43
2023-01-15T23:52:54.138Z,4.40
2023-01-15T23:55:23.357Z,4.30
2023-01-15T23:57:51.181Z,4.33
